Terminal Aerodrome Forecast
Issued by NWS Wakefield, VA

Home | Current Version | Previous Version | Text Only | Print | Product List | Glossary On
Versions: 1 2 3 4 5 6 7 8 9 10 11 12 13 14 15 16
000
FTUS41 KAKQ 252330
TAFRIC
TAF
KRIC 252330Z 2600/2624 02010KT P6SM FEW060
     FM260900 36004KT P6SM SCT035
     FM261000 01004KT P6SM SCT250
     FM261400 08004KT P6SM SCT035=

USA.gov is the U.S. government's official web portal to all federal, state and local government web resources and services.